SMO weather

Santa Monica Municipal Airport
Santa Monica, California, United States

Public forecast

Using degrees Fahrenheit for public forecast. Weather courtesy of forecast.io.

METAR (pilot weather report)

Retrieved 2019/05/24 01:51 UTC (36 minutes ago):

KSMO 240151Z 28004KT 10SM FEW039 BKN050 16/11 A3000 RMK AO2 SLP158 T01560111

TAF (pilot weather forecast)

Forecast is more than 12 hours old.

Retrieved 2019/05/23 00:47 UTC (1 day ago):

TAF KSMO 232347Z 2400/2424 23010KT P6SM OVC030 FM240300 VRB03KT P6SM OVC025 FM241900 24010KT P6SM SCT035